sensor_id;sensor_type;location;lat;lon;timestamp;P1;durP1;ratioP1;P2;durP2;ratioP2
3311;SDS011;1668;49.648;8.570;2023-06-14T00:00:46;6.70;;;3.80;;
3311;SDS011;1668;49.648;8.570;2023-06-14T00:03:14;5.33;;;4.60;;
3311;SDS011;1668;49.648;8.570;2023-06-14T00:05:42;6.37;;;4.27;;
3311;SDS011;1668;49.648;8.570;2023-06-14T00:08:11;5.40;;;4.30;;
3311;SDS011;1668;49.648;8.570;2023-06-14T00:10:39;6.67;;;4.80;;
3311;SDS011;1668;49.648;8.570;2023-06-14T00:13:08;11.90;;;4.17;;
3311;SDS011;1668;49.648;8.570;2023-06-14T00:15:36;6.40;;;4.37;;
3311;SDS011;1668;49.648;8.570;2023-06-14T00:18:03;6.00;;;4.60;;
3311;SDS011;1668;49.648;8.570;2023-06-14T00:20:31;7.17;;;4.60;;
3311;SDS011;1668;49.648;8.570;2023-06-14T00:22:59;5.90;;;4.40;;
3311;SDS011;1668;49.648;8.570;2023-06-14T00:25:26;7.93;;;4.40;;
3311;SDS011;1668;49.648;8.570;2023-06-14T00:27:53;10.13;;;4.80;;
3311;SDS011;1668;49.648;8.570;2023-06-14T00:30:22;5.50;;;4.90;;
3311;SDS011;1668;49.648;8.570;2023-06-14T00:32:50;7.23;;;5.10;;
3311;SDS011;1668;49.648;8.570;2023-06-14T00:35:17;6.97;;;5.07;;
3311;SDS011;1668;49.648;8.570;2023-06-14T00:37:44;7.33;;;4.53;;
3311;SDS011;1668;49.648;8.570;2023-06-14T00:40:11;5.90;;;4.90;;
3311;SDS011;1668;49.648;8.570;2023-06-14T00:42:38;7.00;;;4.73;;
3311;SDS011;1668;49.648;8.570;2023-06-14T00:45:05;5.57;;;4.30;;
3311;SDS011;1668;49.648;8.570;2023-06-14T00:47:33;8.03;;;4.70;;
3311;SDS011;1668;49.648;8.570;2023-06-14T00:50:03;8.17;;;4.83;;
3311;SDS011;1668;49.648;8.570;2023-06-14T00:52:33;5.83;;;4.40;;
3311;SDS011;1668;49.648;8.570;2023-06-14T00:55:01;6.87;;;4.43;;
3311;SDS011;1668;49.648;8.570;2023-06-14T00:57:28;5.43;;;4.13;;
3311;SDS011;1668;49.648;8.570;2023-06-14T00:59:56;5.87;;;4.60;;
3311;SDS011;1668;49.648;8.570;2023-06-14T01:02:23;5.67;;;4.47;;
3311;SDS011;1668;49.648;8.570;2023-06-14T01:04:52;5.70;;;4.47;;
3311;SDS011;1668;49.648;8.570;2023-06-14T01:07:23;6.00;;;5.00;;
3311;SDS011;1668;49.648;8.570;2023-06-14T01:09:59;6.23;;;4.80;;
3311;SDS011;1668;49.648;8.570;2023-06-14T01:12:39;8.60;;;5.00;;
3311;SDS011;1668;49.648;8.570;2023-06-14T01:15:19;7.90;;;4.77;;
3311;SDS011;1668;49.648;8.570;2023-06-14T01:17:47;5.93;;;4.80;;
3311;SDS011;1668;49.648;8.570;2023-06-14T01:20:21;7.37;;;4.80;;
3311;SDS011;1668;49.648;8.570;2023-06-14T01:22:52;6.33;;;4.23;;
3311;SDS011;1668;49.648;8.570;2023-06-14T01:25:20;5.30;;;4.60;;
3311;SDS011;1668;49.648;8.570;2023-06-14T01:27:48;6.80;;;4.77;;
3311;SDS011;1668;49.648;8.570;2023-06-14T01:30:16;5.40;;;4.30;;
3311;SDS011;1668;49.648;8.570;2023-06-14T01:32:43;7.30;;;4.60;;
3311;SDS011;1668;49.648;8.570;2023-06-14T01:35:11;5.70;;;4.33;;
3311;SDS011;1668;49.648;8.570;2023-06-14T01:37:39;6.27;;;5.00;;
3311;SDS011;1668;49.648;8.570;2023-06-14T01:40:08;6.43;;;4.17;;
3311;SDS011;1668;49.648;8.570;2023-06-14T01:42:37;5.20;;;4.23;;
3311;SDS011;1668;49.648;8.570;2023-06-14T01:45:05;6.90;;;4.77;;
3311;SDS011;1668;49.648;8.570;2023-06-14T01:47:33;8.13;;;4.93;;
3311;SDS011;1668;49.648;8.570;2023-06-14T01:50:01;5.40;;;4.30;;
3311;SDS011;1668;49.648;8.570;2023-06-14T01:52:28;6.93;;;4.53;;
3311;SDS011;1668;49.648;8.570;2023-06-14T01:54:56;6.80;;;4.50;;
3311;SDS011;1668;49.648;8.570;2023-06-14T01:57:25;8.93;;;5.33;;
3311;SDS011;1668;49.648;8.570;2023-06-14T01:59:52;6.40;;;4.80;;
3311;SDS011;1668;49.648;8.570;2023-06-14T02:02:19;7.73;;;4.30;;
3311;SDS011;1668;49.648;8.570;2023-06-14T02:04:46;6.67;;;4.43;;
3311;SDS011;1668;49.648;8.570;2023-06-14T02:07:13;10.50;;;4.70;;
3311;SDS011;1668;49.648;8.570;2023-06-14T02:09:40;5.43;;;4.50;;
3311;SDS011;1668;49.648;8.570;2023-06-14T02:12:08;5.60;;;4.30;;
3311;SDS011;1668;49.648;8.570;2023-06-14T02:14:38;6.67;;;4.60;;
3311;SDS011;1668;49.648;8.570;2023-06-14T02:17:05;8.63;;;4.40;;
3311;SDS011;1668;49.648;8.570;2023-06-14T02:19:32;5.70;;;4.50;;
3311;SDS011;1668;49.648;8.570;2023-06-14T02:21:59;5.10;;;4.60;;
3311;SDS011;1668;49.648;8.570;2023-06-14T02:24:26;7.33;;;4.90;;
3311;SDS011;1668;49.648;8.570;2023-06-14T02:26:53;8.23;;;5.00;;
3311;SDS011;1668;49.648;8.570;2023-06-14T02:29:20;8.37;;;5.50;;
3311;SDS011;1668;49.648;8.570;2023-06-14T02:31:48;5.33;;;4.77;;
3311;SDS011;1668;49.648;8.570;2023-06-14T02:34:15;8.23;;;5.00;;
3311;SDS011;1668;49.648;8.570;2023-06-14T02:36:43;7.23;;;5.47;;
3311;SDS011;1668;49.648;8.570;2023-06-14T02:39:11;9.73;;;5.37;;
3311;SDS011;1668;49.648;8.570;2023-06-14T02:41:38;9.80;;;5.33;;
3311;SDS011;1668;49.648;8.570;2023-06-14T02:44:05;8.10;;;5.23;;
3311;SDS011;1668;49.648;8.570;2023-06-14T02:46:32;9.53;;;5.37;;
3311;SDS011;1668;49.648;8.570;2023-06-14T02:49:01;13.07;;;5.70;;
3311;SDS011;1668;49.648;8.570;2023-06-14T02:51:28;7.70;;;5.70;;
3311;SDS011;1668;49.648;8.570;2023-06-14T02:53:54;6.43;;;5.67;;
3311;SDS011;1668;49.648;8.570;2023-06-14T02:56:21;9.73;;;5.20;;
3311;SDS011;1668;49.648;8.570;2023-06-14T02:58:48;8.20;;;5.30;;
3311;SDS011;1668;49.648;8.570;2023-06-14T03:01:16;5.80;;;5.20;;
3311;SDS011;1668;49.648;8.570;2023-06-14T03:03:43;7.83;;;5.87;;
3311;SDS011;1668;49.648;8.570;2023-06-14T03:06:11;9.70;;;5.70;;
3311;SDS011;1668;49.648;8.570;2023-06-14T03:08:39;8.10;;;5.37;;
3311;SDS011;1668;49.648;8.570;2023-06-14T03:11:06;6.93;;;5.73;;
3311;SDS011;1668;49.648;8.570;2023-06-14T03:13:34;6.27;;;5.43;;
3311;SDS011;1668;49.648;8.570;2023-06-14T03:16:02;11.30;;;5.97;;
3311;SDS011;1668;49.648;8.570;2023-06-14T03:18:29;7.90;;;6.20;;
3311;SDS011;1668;49.648;8.570;2023-06-14T03:21:00;9.53;;;5.67;;
3311;SDS011;1668;49.648;8.570;2023-06-14T03:23:29;6.50;;;5.30;;
3311;SDS011;1668;49.648;8.570;2023-06-14T03:25:56;7.37;;;5.40;;
3311;SDS011;1668;49.648;8.570;2023-06-14T03:28:23;5.90;;;5.20;;
3311;SDS011;1668;49.648;8.570;2023-06-14T03:30:50;10.27;;;6.10;;
3311;SDS011;1668;49.648;8.570;2023-06-14T03:33:17;8.33;;;5.13;;
3311;SDS011;1668;49.648;8.570;2023-06-14T03:35:44;7.83;;;5.00;;
3311;SDS011;1668;49.648;8.570;2023-06-14T03:38:11;7.30;;;5.77;;
3311;SDS011;1668;49.648;8.570;2023-06-14T03:40:40;10.73;;;5.93;;
3311;SDS011;1668;49.648;8.570;2023-06-14T03:43:07;7.07;;;5.37;;
3311;SDS011;1668;49.648;8.570;2023-06-14T03:45:33;6.23;;;5.40;;
3311;SDS011;1668;49.648;8.570;2023-06-14T03:48:00;6.37;;;5.10;;
3311;SDS011;1668;49.648;8.570;2023-06-14T03:50:28;8.97;;;5.37;;
3311;SDS011;1668;49.648;8.570;2023-06-14T03:52:55;7.30;;;5.53;;
3311;SDS011;1668;49.648;8.570;2023-06-14T03:55:22;6.40;;;5.00;;
3311;SDS011;1668;49.648;8.570;2023-06-14T03:57:51;5.80;;;4.97;;
3311;SDS011;1668;49.648;8.570;2023-06-14T04:00:18;7.57;;;5.60;;
3311;SDS011;1668;49.648;8.570;2023-06-14T04:02:45;7.40;;;5.10;;
3311;SDS011;1668;49.648;8.570;2023-06-14T04:05:12;6.10;;;5.07;;
3311;SDS011;1668;49.648;8.570;2023-06-14T04:07:41;7.13;;;5.77;;
3311;SDS011;1668;49.648;8.570;2023-06-14T04:10:10;6.43;;;5.53;;
3311;SDS011;1668;49.648;8.570;2023-06-14T04:12:37;7.60;;;5.50;;
3311;SDS011;1668;49.648;8.570;2023-06-14T04:15:06;7.43;;;5.87;;
3311;SDS011;1668;49.648;8.570;2023-06-14T04:17:34;8.60;;;5.30;;
3311;SDS011;1668;49.648;8.570;2023-06-14T04:20:04;12.77;;;5.90;;
3311;SDS011;1668;49.648;8.570;2023-06-14T04:22:34;9.93;;;5.00;;
3311;SDS011;1668;49.648;8.570;2023-06-14T04:25:02;7.27;;;5.63;;
3311;SDS011;1668;49.648;8.570;2023-06-14T04:27:31;8.27;;;6.13;;
3311;SDS011;1668;49.648;8.570;2023-06-14T04:30:00;9.50;;;5.37;;
3311;SDS011;1668;49.648;8.570;2023-06-14T04:32:29;8.53;;;5.70;;
3311;SDS011;1668;49.648;8.570;2023-06-14T04:34:58;11.70;;;6.40;;
3311;SDS011;1668;49.648;8.570;2023-06-14T04:37:27;8.13;;;5.27;;
3311;SDS011;1668;49.648;8.570;2023-06-14T04:39:54;11.60;;;5.97;;
3311;SDS011;1668;49.648;8.570;2023-06-14T04:42:22;10.40;;;5.50;;
3311;SDS011;1668;49.648;8.570;2023-06-14T04:44:50;7.87;;;5.43;;
3311;SDS011;1668;49.648;8.570;2023-06-14T04:47:20;5.67;;;5.00;;
3311;SDS011;1668;49.648;8.570;2023-06-14T04:49:48;7.27;;;5.33;;
3311;SDS011;1668;49.648;8.570;2023-06-14T04:52:16;6.30;;;4.90;;
3311;SDS011;1668;49.648;8.570;2023-06-14T04:54:45;9.07;;;5.23;;
3311;SDS011;1668;49.648;8.570;2023-06-14T04:57:13;7.53;;;5.30;;
3311;SDS011;1668;49.648;8.570;2023-06-14T04:59:42;8.60;;;5.03;;
3311;SDS011;1668;49.648;8.570;2023-06-14T05:02:09;9.00;;;5.37;;
3311;SDS011;1668;49.648;8.570;2023-06-14T05:04:36;5.70;;;4.73;;
3311;SDS011;1668;49.648;8.570;2023-06-14T05:07:07;7.80;;;5.27;;
3311;SDS011;1668;49.648;8.570;2023-06-14T05:09:34;6.00;;;4.80;;
3311;SDS011;1668;49.648;8.570;2023-06-14T05:12:01;6.97;;;4.60;;
3311;SDS011;1668;49.648;8.570;2023-06-14T05:14:28;7.53;;;4.43;;
3311;SDS011;1668;49.648;8.570;2023-06-14T05:16:55;7.23;;;4.83;;
3311;SDS011;1668;49.648;8.570;2023-06-14T05:19:22;9.37;;;5.17;;
3311;SDS011;1668;49.648;8.570;2023-06-14T05:21:49;7.03;;;4.50;;
3311;SDS011;1668;49.648;8.570;2023-06-14T05:24:17;7.47;;;4.57;;
3311;SDS011;1668;49.648;8.570;2023-06-14T05:26:44;7.57;;;5.13;;
3311;SDS011;1668;49.648;8.570;2023-06-14T05:29:11;7.00;;;5.10;;
3311;SDS011;1668;49.648;8.570;2023-06-14T05:31:38;10.57;;;5.70;;
3311;SDS011;1668;49.648;8.570;2023-06-14T05:34:05;11.97;;;5.30;;
3311;SDS011;1668;49.648;8.570;2023-06-14T05:36:32;10.27;;;5.10;;
3311;SDS011;1668;49.648;8.570;2023-06-14T05:38:59;11.27;;;6.00;;
3311;SDS011;1668;49.648;8.570;2023-06-14T05:41:29;11.37;;;5.77;;
3311;SDS011;1668;49.648;8.570;2023-06-14T05:43:56;8.63;;;5.40;;
3311;SDS011;1668;49.648;8.570;2023-06-14T05:46:25;9.90;;;5.80;;
3311;SDS011;1668;49.648;8.570;2023-06-14T05:48:52;7.90;;;5.20;;
3311;SDS011;1668;49.648;8.570;2023-06-14T05:51:19;7.00;;;5.00;;
3311;SDS011;1668;49.648;8.570;2023-06-14T05:53:46;7.63;;;5.40;;
3311;SDS011;1668;49.648;8.570;2023-06-14T05:56:13;7.27;;;5.03;;
3311;SDS011;1668;49.648;8.570;2023-06-14T05:58:41;8.90;;;5.27;;
3311;SDS011;1668;49.648;8.570;2023-06-14T06:01:08;6.70;;;5.13;;
3311;SDS011;1668;49.648;8.570;2023-06-14T06:03:36;8.97;;;5.30;;
3311;SDS011;1668;49.648;8.570;2023-06-14T06:06:03;6.57;;;5.10;;
3311;SDS011;1668;49.648;8.570;2023-06-14T06:08:30;10.30;;;5.10;;
3311;SDS011;1668;49.648;8.570;2023-06-14T06:10:58;11.50;;;4.67;;
3311;SDS011;1668;49.648;8.570;2023-06-14T06:13:25;6.23;;;4.83;;
3311;SDS011;1668;49.648;8.570;2023-06-14T06:15:53;6.80;;;4.53;;
3311;SDS011;1668;49.648;8.570;2023-06-14T06:18:21;7.40;;;4.87;;
3311;SDS011;1668;49.648;8.570;2023-06-14T06:20:48;10.40;;;4.67;;
3311;SDS011;1668;49.648;8.570;2023-06-14T06:23:15;8.47;;;4.80;;
3311;SDS011;1668;49.648;8.570;2023-06-14T06:25:42;7.77;;;4.67;;
3311;SDS011;1668;49.648;8.570;2023-06-14T06:28:09;9.87;;;4.97;;
3311;SDS011;1668;49.648;8.570;2023-06-14T06:30:36;9.77;;;4.93;;
3311;SDS011;1668;49.648;8.570;2023-06-14T06:33:04;6.03;;;4.37;;
3311;SDS011;1668;49.648;8.570;2023-06-14T06:35:31;9.20;;;4.80;;
3311;SDS011;1668;49.648;8.570;2023-06-14T06:37:58;11.63;;;5.23;;
3311;SDS011;1668;49.648;8.570;2023-06-14T06:40:26;14.23;;;5.27;;
3311;SDS011;1668;49.648;8.570;2023-06-14T06:42:53;7.93;;;4.40;;
3311;SDS011;1668;49.648;8.570;2023-06-14T06:45:20;10.10;;;5.57;;
3311;SDS011;1668;49.648;8.570;2023-06-14T06:47:48;7.83;;;4.50;;
3311;SDS011;1668;49.648;8.570;2023-06-14T06:50:17;6.73;;;4.70;;
3311;SDS011;1668;49.648;8.570;2023-06-14T06:52:44;6.30;;;4.87;;
3311;SDS011;1668;49.648;8.570;2023-06-14T06:55:11;8.50;;;4.60;;
3311;SDS011;1668;49.648;8.570;2023-06-14T06:57:38;7.47;;;4.50;;
3311;SDS011;1668;49.648;8.570;2023-06-14T07:00:06;6.70;;;4.60;;
3311;SDS011;1668;49.648;8.570;2023-06-14T07:02:34;11.00;;;4.03;;
3311;SDS011;1668;49.648;8.570;2023-06-14T07:05:01;6.77;;;4.40;;
3311;SDS011;1668;49.648;8.570;2023-06-14T07:07:31;5.67;;;3.87;;
3311;SDS011;1668;49.648;8.570;2023-06-14T07:09:57;8.90;;;4.60;;
3311;SDS011;1668;49.648;8.570;2023-06-14T07:12:25;7.40;;;4.80;;
3311;SDS011;1668;49.648;8.570;2023-06-14T07:14:52;6.40;;;5.07;;
3311;SDS011;1668;49.648;8.570;2023-06-14T07:17:19;4.83;;;4.13;;
3311;SDS011;1668;49.648;8.570;2023-06-14T07:19:46;5.13;;;4.23;;
3311;SDS011;1668;49.648;8.570;2023-06-14T07:22:13;7.67;;;4.53;;
3311;SDS011;1668;49.648;8.570;2023-06-14T07:24:41;6.60;;;3.97;;
3311;SDS011;1668;49.648;8.570;2023-06-14T07:27:08;8.20;;;4.60;;
3311;SDS011;1668;49.648;8.570;2023-06-14T07:29:35;7.97;;;4.47;;
3311;SDS011;1668;49.648;8.570;2023-06-14T07:32:01;6.47;;;4.10;;
3311;SDS011;1668;49.648;8.570;2023-06-14T07:34:29;5.67;;;3.83;;
3311;SDS011;1668;49.648;8.570;2023-06-14T07:36:55;7.30;;;4.53;;
3311;SDS011;1668;49.648;8.570;2023-06-14T07:39:23;5.87;;;4.23;;
3311;SDS011;1668;49.648;8.570;2023-06-14T07:41:51;7.33;;;4.13;;
3311;SDS011;1668;49.648;8.570;2023-06-14T07:44:18;7.50;;;4.90;;
3311;SDS011;1668;49.648;8.570;2023-06-14T07:46:45;8.90;;;4.47;;
3311;SDS011;1668;49.648;8.570;2023-06-14T07:49:14;7.33;;;4.60;;
3311;SDS011;1668;49.648;8.570;2023-06-14T07:51:41;5.67;;;4.10;;
3311;SDS011;1668;49.648;8.570;2023-06-14T07:54:09;8.30;;;4.67;;
3311;SDS011;1668;49.648;8.570;2023-06-14T07:56:36;6.70;;;4.30;;
3311;SDS011;1668;49.648;8.570;2023-06-14T07:59:04;5.47;;;4.30;;
3311;SDS011;1668;49.648;8.570;2023-06-14T08:01:32;10.40;;;4.40;;
3311;SDS011;1668;49.648;8.570;2023-06-14T08:03:59;5.00;;;4.20;;
3311;SDS011;1668;49.648;8.570;2023-06-14T08:06:26;6.20;;;4.40;;
3311;SDS011;1668;49.648;8.570;2023-06-14T08:08:53;8.87;;;4.43;;
3311;SDS011;1668;49.648;8.570;2023-06-14T08:11:20;8.13;;;4.07;;
3311;SDS011;1668;49.648;8.570;2023-06-14T08:13:49;5.70;;;4.43;;
3311;SDS011;1668;49.648;8.570;2023-06-14T08:16:17;8.30;;;4.67;;
3311;SDS011;1668;49.648;8.570;2023-06-14T08:18:44;8.93;;;4.20;;
3311;SDS011;1668;49.648;8.570;2023-06-14T08:21:11;6.50;;;3.90;;
3311;SDS011;1668;49.648;8.570;2023-06-14T08:23:39;6.80;;;4.77;;
3311;SDS011;1668;49.648;8.570;2023-06-14T08:26:08;7.33;;;4.70;;
3311;SDS011;1668;49.648;8.570;2023-06-14T08:28:36;6.13;;;4.27;;
3311;SDS011;1668;49.648;8.570;2023-06-14T08:31:02;6.67;;;4.67;;
3311;SDS011;1668;49.648;8.570;2023-06-14T08:33:31;5.60;;;4.07;;
3311;SDS011;1668;49.648;8.570;2023-06-14T08:35:59;6.50;;;4.40;;
3311;SDS011;1668;49.648;8.570;2023-06-14T08:38:29;5.60;;;4.23;;
3311;SDS011;1668;49.648;8.570;2023-06-14T08:40:56;5.00;;;3.70;;
3311;SDS011;1668;49.648;8.570;2023-06-14T08:43:24;8.63;;;3.80;;
3311;SDS011;1668;49.648;8.570;2023-06-14T08:45:52;4.63;;;3.23;;
3311;SDS011;1668;49.648;8.570;2023-06-14T08:48:24;8.27;;;4.17;;
3311;SDS011;1668;49.648;8.570;2023-06-14T08:50:54;6.00;;;3.90;;
3311;SDS011;1668;49.648;8.570;2023-06-14T08:53:26;7.23;;;3.80;;
3311;SDS011;1668;49.648;8.570;2023-06-14T08:55:57;6.27;;;4.20;;
3311;SDS011;1668;49.648;8.570;2023-06-14T08:58:26;7.33;;;3.73;;
3311;SDS011;1668;49.648;8.570;2023-06-14T09:00:56;5.33;;;3.50;;
3311;SDS011;1668;49.648;8.570;2023-06-14T09:03:24;5.83;;;3.90;;
3311;SDS011;1668;49.648;8.570;2023-06-14T09:05:56;7.67;;;3.73;;
3311;SDS011;1668;49.648;8.570;2023-06-14T09:08:24;6.40;;;4.30;;
3311;SDS011;1668;49.648;8.570;2023-06-14T09:10:51;6.17;;;3.73;;
3311;SDS011;1668;49.648;8.570;2023-06-14T09:13:18;4.90;;;3.40;;
3311;SDS011;1668;49.648;8.570;2023-06-14T09:15:45;7.63;;;4.43;;
3311;SDS011;1668;49.648;8.570;2023-06-14T09:18:12;5.40;;;4.13;;
3311;SDS011;1668;49.648;8.570;2023-06-14T09:20:39;6.67;;;3.93;;
3311;SDS011;1668;49.648;8.570;2023-06-14T09:23:08;6.60;;;3.67;;
3311;SDS011;1668;49.648;8.570;2023-06-14T09:25:41;5.40;;;3.80;;
3311;SDS011;1668;49.648;8.570;2023-06-14T09:28:09;6.83;;;4.40;;
3311;SDS011;1668;49.648;8.570;2023-06-14T09:30:36;5.47;;;3.90;;
3311;SDS011;1668;49.648;8.570;2023-06-14T09:33:03;4.40;;;3.37;;
3311;SDS011;1668;49.648;8.570;2023-06-14T09:35:30;4.20;;;3.40;;
3311;SDS011;1668;49.648;8.570;2023-06-14T09:37:58;5.90;;;4.27;;
3311;SDS011;1668;49.648;8.570;2023-06-14T09:40:26;5.83;;;3.63;;
3311;SDS011;1668;49.648;8.570;2023-06-14T09:42:53;6.27;;;3.70;;
3311;SDS011;1668;49.648;8.570;2023-06-14T09:45:22;6.17;;;3.70;;
3311;SDS011;1668;49.648;8.570;2023-06-14T09:47:53;10.67;;;3.60;;
3311;SDS011;1668;49.648;8.570;2023-06-14T09:50:20;7.70;;;3.70;;
3311;SDS011;1668;49.648;8.570;2023-06-14T09:52:47;4.83;;;3.40;;
3311;SDS011;1668;49.648;8.570;2023-06-14T09:55:18;5.70;;;3.07;;
3311;SDS011;1668;49.648;8.570;2023-06-14T09:57:47;4.23;;;3.43;;
3311;SDS011;1668;49.648;8.570;2023-06-14T10:00:16;4.53;;;2.77;;
3311;SDS011;1668;49.648;8.570;2023-06-14T10:02:46;5.00;;;2.90;;
3311;SDS011;1668;49.648;8.570;2023-06-14T10:05:17;6.70;;;3.27;;
3311;SDS011;1668;49.648;8.570;2023-06-14T10:07:48;6.37;;;3.40;;
3311;SDS011;1668;49.648;8.570;2023-06-14T10:10:19;6.20;;;3.37;;
3311;SDS011;1668;49.648;8.570;2023-06-14T10:12:47;6.20;;;3.27;;
3311;SDS011;1668;49.648;8.570;2023-06-14T10:15:17;4.80;;;3.23;;
3311;SDS011;1668;49.648;8.570;2023-06-14T10:17:49;5.00;;;3.10;;
3311;SDS011;1668;49.648;8.570;2023-06-14T10:20:23;4.23;;;3.43;;
3311;SDS011;1668;49.648;8.570;2023-06-14T10:22:56;4.43;;;3.60;;
3311;SDS011;1668;49.648;8.570;2023-06-14T10:25:28;4.67;;;3.40;;
3311;SDS011;1668;49.648;8.570;2023-06-14T10:28:05;4.30;;;3.53;;
3311;SDS011;1668;49.648;8.570;2023-06-14T10:33:30;4.60;;;2.80;;
3311;SDS011;1668;49.648;8.570;2023-06-14T10:36:08;4.60;;;3.43;;
3311;SDS011;1668;49.648;8.570;2023-06-14T10:38:56;3.97;;;3.57;;
3311;SDS011;1668;49.648;8.570;2023-06-14T10:41:24;3.90;;;3.10;;
3311;SDS011;1668;49.648;8.570;2023-06-14T10:43:54;4.60;;;3.33;;
3311;SDS011;1668;49.648;8.570;2023-06-14T10:46:57;4.43;;;3.03;;
3311;SDS011;1668;49.648;8.570;2023-06-14T10:49:36;3.60;;;2.97;;
3311;SDS011;1668;49.648;8.570;2023-06-14T10:52:08;4.37;;;3.13;;
3311;SDS011;1668;49.648;8.570;2023-06-14T10:55:00;7.27;;;3.33;;
3311;SDS011;1668;49.648;8.570;2023-06-14T10:57:38;3.30;;;2.93;;
3311;SDS011;1668;49.648;8.570;2023-06-14T11:00:08;5.73;;;3.40;;
3311;SDS011;1668;49.648;8.570;2023-06-14T11:05:50;3.23;;;2.80;;
3311;SDS011;1668;49.648;8.570;2023-06-14T11:08:36;5.83;;;3.67;;
3311;SDS011;1668;49.648;8.570;2023-06-14T11:11:10;6.17;;;3.30;;
3311;SDS011;1668;49.648;8.570;2023-06-14T11:13:45;8.10;;;3.57;;
3311;SDS011;1668;49.648;8.570;2023-06-14T11:16:14;6.73;;;3.33;;
3311;SDS011;1668;49.648;8.570;2023-06-14T11:18:42;4.70;;;3.40;;
3311;SDS011;1668;49.648;8.570;2023-06-14T11:21:10;4.87;;;3.40;;
3311;SDS011;1668;49.648;8.570;2023-06-14T11:23:41;5.20;;;3.30;;
3311;SDS011;1668;49.648;8.570;2023-06-14T11:26:08;6.13;;;3.73;;
3311;SDS011;1668;49.648;8.570;2023-06-14T11:28:36;5.17;;;3.40;;
3311;SDS011;1668;49.648;8.570;2023-06-14T11:31:06;4.80;;;3.47;;
3311;SDS011;1668;49.648;8.570;2023-06-14T11:33:35;6.23;;;3.33;;
3311;SDS011;1668;49.648;8.570;2023-06-14T11:36:02;6.30;;;3.40;;
3311;SDS011;1668;49.648;8.570;2023-06-14T11:38:30;5.00;;;3.67;;
3311;SDS011;1668;49.648;8.570;2023-06-14T11:41:00;9.07;;;4.30;;
3311;SDS011;1668;49.648;8.570;2023-06-14T11:43:27;4.10;;;3.43;;
3311;SDS011;1668;49.648;8.570;2023-06-14T11:45:54;3.80;;;3.10;;
3311;SDS011;1668;49.648;8.570;2023-06-14T11:48:21;11.17;;;3.50;;
3311;SDS011;1668;49.648;8.570;2023-06-14T11:50:50;6.30;;;3.30;;
3311;SDS011;1668;49.648;8.570;2023-06-14T11:53:17;8.93;;;3.37;;
3311;SDS011;1668;49.648;8.570;2023-06-14T11:55:44;4.00;;;3.60;;
3311;SDS011;1668;49.648;8.570;2023-06-14T11:58:12;4.17;;;3.20;;
3311;SDS011;1668;49.648;8.570;2023-06-14T12:00:40;4.67;;;3.43;;
3311;SDS011;1668;49.648;8.570;2023-06-14T12:03:07;4.23;;;3.43;;
3311;SDS011;1668;49.648;8.570;2023-06-14T12:05:34;4.27;;;3.40;;
3311;SDS011;1668;49.648;8.570;2023-06-14T12:08:03;6.63;;;3.40;;
3311;SDS011;1668;49.648;8.570;2023-06-14T12:10:39;4.50;;;3.00;;
3311;SDS011;1668;49.648;8.570;2023-06-14T12:13:09;4.70;;;3.20;;
3311;SDS011;1668;49.648;8.570;2023-06-14T12:15:36;4.63;;;2.93;;
3311;SDS011;1668;49.648;8.570;2023-06-14T12:18:05;5.10;;;3.33;;
3311;SDS011;1668;49.648;8.570;2023-06-14T12:20:33;4.70;;;3.10;;
3311;SDS011;1668;49.648;8.570;2023-06-14T12:23:03;5.10;;;3.20;;
3311;SDS011;1668;49.648;8.570;2023-06-14T12:25:31;8.20;;;3.30;;
3311;SDS011;1668;49.648;8.570;2023-06-14T12:27:59;6.60;;;3.60;;
3311;SDS011;1668;49.648;8.570;2023-06-14T12:30:30;6.27;;;3.33;;
3311;SDS011;1668;49.648;8.570;2023-06-14T12:32:57;5.77;;;3.40;;
3311;SDS011;1668;49.648;8.570;2023-06-14T12:35:25;5.20;;;3.37;;
3311;SDS011;1668;49.648;8.570;2023-06-14T12:37:52;4.20;;;3.10;;
3311;SDS011;1668;49.648;8.570;2023-06-14T12:40:20;3.27;;;2.90;;
3311;SDS011;1668;49.648;8.570;2023-06-14T12:42:47;4.90;;;3.60;;
3311;SDS011;1668;49.648;8.570;2023-06-14T12:45:14;10.80;;;3.57;;
3311;SDS011;1668;49.648;8.570;2023-06-14T12:47:41;3.80;;;3.00;;
3311;SDS011;1668;49.648;8.570;2023-06-14T12:50:08;4.97;;;2.67;;
3311;SDS011;1668;49.648;8.570;2023-06-14T12:52:35;8.03;;;2.93;;
3311;SDS011;1668;49.648;8.570;2023-06-14T12:55:03;10.77;;;3.70;;
3311;SDS011;1668;49.648;8.570;2023-06-14T12:57:31;5.03;;;3.27;;
3311;SDS011;1668;49.648;8.570;2023-06-14T13:00:01;4.20;;;3.10;;
3311;SDS011;1668;49.648;8.570;2023-06-14T13:02:29;3.57;;;2.90;;
3311;SDS011;1668;49.648;8.570;2023-06-14T13:04:56;6.90;;;3.57;;
3311;SDS011;1668;49.648;8.570;2023-06-14T13:07:24;5.77;;;2.60;;
3311;SDS011;1668;49.648;8.570;2023-06-14T13:09:51;3.83;;;3.00;;
3311;SDS011;1668;49.648;8.570;2023-06-14T13:12:17;6.03;;;2.80;;
3311;SDS011;1668;49.648;8.570;2023-06-14T13:14:46;5.47;;;3.17;;
3311;SDS011;1668;49.648;8.570;2023-06-14T13:17:13;3.23;;;2.87;;
3311;SDS011;1668;49.648;8.570;2023-06-14T13:19:40;6.13;;;2.63;;
3311;SDS011;1668;49.648;8.570;2023-06-14T13:22:07;3.50;;;3.13;;
3311;SDS011;1668;49.648;8.570;2023-06-14T13:24:34;3.50;;;2.90;;
3311;SDS011;1668;49.648;8.570;2023-06-14T13:27:01;7.20;;;3.20;;
3311;SDS011;1668;49.648;8.570;2023-06-14T13:29:28;5.17;;;3.17;;
3311;SDS011;1668;49.648;8.570;2023-06-14T13:31:57;4.83;;;2.90;;
3311;SDS011;1668;49.648;8.570;2023-06-14T13:34:24;3.97;;;2.90;;
3311;SDS011;1668;49.648;8.570;2023-06-14T13:36:51;6.70;;;3.00;;
3311;SDS011;1668;49.648;8.570;2023-06-14T13:39:18;4.03;;;2.70;;
3311;SDS011;1668;49.648;8.570;2023-06-14T13:41:45;5.30;;;3.10;;
3311;SDS011;1668;49.648;8.570;2023-06-14T13:44:12;5.60;;;3.10;;
3311;SDS011;1668;49.648;8.570;2023-06-14T13:46:41;5.80;;;3.10;;
3311;SDS011;1668;49.648;8.570;2023-06-14T13:49:10;4.33;;;2.60;;
3311;SDS011;1668;49.648;8.570;2023-06-14T13:51:37;2.90;;;2.50;;
3311;SDS011;1668;49.648;8.570;2023-06-14T13:54:04;3.37;;;3.07;;
3311;SDS011;1668;49.648;8.570;2023-06-14T13:56:31;3.50;;;3.20;;
3311;SDS011;1668;49.648;8.570;2023-06-14T13:58:58;6.60;;;3.20;;
3311;SDS011;1668;49.648;8.570;2023-06-14T14:01:26;3.20;;;2.83;;
3311;SDS011;1668;49.648;8.570;2023-06-14T14:03:54;5.60;;;3.27;;
3311;SDS011;1668;49.648;8.570;2023-06-14T14:06:22;4.40;;;2.80;;
3311;SDS011;1668;49.648;8.570;2023-06-14T14:08:49;4.93;;;3.20;;
3311;SDS011;1668;49.648;8.570;2023-06-14T14:11:16;3.27;;;2.50;;
3311;SDS011;1668;49.648;8.570;2023-06-14T14:13:43;4.53;;;2.97;;
3311;SDS011;1668;49.648;8.570;2023-06-14T14:16:10;4.33;;;2.90;;
3311;SDS011;1668;49.648;8.570;2023-06-14T14:18:37;3.33;;;2.67;;
3311;SDS011;1668;49.648;8.570;2023-06-14T14:21:04;5.03;;;3.07;;
3311;SDS011;1668;49.648;8.570;2023-06-14T14:23:33;4.77;;;2.60;;
3311;SDS011;1668;49.648;8.570;2023-06-14T14:26:00;3.23;;;2.93;;
3311;SDS011;1668;49.648;8.570;2023-06-14T14:28:29;6.63;;;2.90;;
3311;SDS011;1668;49.648;8.570;2023-06-14T14:30:56;3.87;;;3.17;;
3311;SDS011;1668;49.648;8.570;2023-06-14T14:33:23;3.80;;;3.00;;
3311;SDS011;1668;49.648;8.570;2023-06-14T14:35:49;3.20;;;2.90;;
3311;SDS011;1668;49.648;8.570;2023-06-14T14:38:16;4.20;;;3.20;;
3311;SDS011;1668;49.648;8.570;2023-06-14T14:40:45;3.93;;;3.53;;
3311;SDS011;1668;49.648;8.570;2023-06-14T14:43:12;4.03;;;2.83;;
3311;SDS011;1668;49.648;8.570;2023-06-14T14:45:39;3.40;;;3.00;;
3311;SDS011;1668;49.648;8.570;2023-06-14T14:48:05;4.00;;;3.13;;
3311;SDS011;1668;49.648;8.570;2023-06-14T14:50:32;3.37;;;3.07;;
3311;SDS011;1668;49.648;8.570;2023-06-14T14:52:59;3.63;;;2.70;;
3311;SDS011;1668;49.648;8.570;2023-06-14T14:55:26;3.30;;;3.00;;
3311;SDS011;1668;49.648;8.570;2023-06-14T14:57:55;4.07;;;3.17;;
3311;SDS011;1668;49.648;8.570;2023-06-14T15:00:22;5.00;;;2.93;;
3311;SDS011;1668;49.648;8.570;2023-06-14T15:02:49;3.50;;;3.10;;
3311;SDS011;1668;49.648;8.570;2023-06-14T15:05:16;3.40;;;3.03;;
3311;SDS011;1668;49.648;8.570;2023-06-14T15:07:43;3.33;;;2.80;;
3311;SDS011;1668;49.648;8.570;2023-06-14T15:10:10;3.70;;;2.90;;
3311;SDS011;1668;49.648;8.570;2023-06-14T15:12:37;3.77;;;3.10;;
3311;SDS011;1668;49.648;8.570;2023-06-14T15:15:06;3.90;;;2.90;;
3311;SDS011;1668;49.648;8.570;2023-06-14T15:17:34;4.63;;;3.07;;
3311;SDS011;1668;49.648;8.570;2023-06-14T15:20:01;13.57;;;3.37;;
3311;SDS011;1668;49.648;8.570;2023-06-14T15:22:29;9.37;;;3.17;;
3311;SDS011;1668;49.648;8.570;2023-06-14T15:24:56;7.03;;;3.23;;
3311;SDS011;1668;49.648;8.570;2023-06-14T15:27:23;6.17;;;3.07;;